createdAt,value
2019-04-21T00:01:22.521Z,100.00
2019-04-21T00:03:53.919Z,100.00
2019-04-21T00:06:36.944Z,100.00
2019-04-21T00:09:02.698Z,100.00
2019-04-21T00:11:29.978Z,100.00
2019-04-21T00:13:46.997Z,100.00
2019-04-21T00:16:06.827Z,100.00
2019-04-21T00:18:29.636Z,100.00
2019-04-21T00:20:56.317Z,100.00
2019-04-21T00:23:38.844Z,100.00
2019-04-21T00:25:56.365Z,100.00
2019-04-21T00:28:33.353Z,100.00
2019-04-21T00:30:58.116Z,100.00
2019-04-21T00:33:12.284Z,100.00
2019-04-21T00:35:39.549Z,100.00
2019-04-21T00:38:17.159Z,100.00
2019-04-21T00:40:50.440Z,100.00
2019-04-21T00:43:07.824Z,100.00
2019-04-21T00:45:31.583Z,100.00
2019-04-21T00:48:03.945Z,100.00
2019-04-21T00:50:34.257Z,100.00
2019-04-21T00:55:33.953Z,100.00
2019-04-21T01:00:20.692Z,100.00
2019-04-21T01:05:10.917Z,100.00
2019-04-21T01:07:36.061Z,100.00
2019-04-21T01:09:53.938Z,100.00
2019-04-21T01:12:26.807Z,100.00
2019-04-21T01:14:55.336Z,100.00
2019-04-21T01:17:23.289Z,100.00
2019-04-21T01:19:41.086Z,100.00
2019-04-21T01:21:51.214Z,100.00
2019-04-21T01:24:24.586Z,100.00
2019-04-21T01:26:54.311Z,100.00
2019-04-21T01:29:33.863Z,100.00
2019-04-21T01:32:03.726Z,100.00
2019-04-21T01:34:23.299Z,100.00
2019-04-21T01:36:46.141Z,100.00
2019-04-21T01:39:17.456Z,100.00
2019-04-21T01:41:49.194Z,100.00
2019-04-21T01:44:04.866Z,100.00
2019-04-21T01:46:32.259Z,100.00
2019-04-21T01:48:59.362Z,100.00
2019-04-21T01:51:24.952Z,100.00
2019-04-21T01:53:55.063Z,100.00
2019-04-21T01:56:17.010Z,100.00
2019-04-21T01:58:40.236Z,100.00
2019-04-21T02:01:09.319Z,100.00
2019-04-21T02:06:11.115Z,100.00
2019-04-21T02:08:34.085Z,100.00
2019-04-21T02:11:00.548Z,100.00
2019-04-21T02:13:21.403Z,100.00
2019-04-21T02:15:56.122Z,100.00
2019-04-21T02:18:19.111Z,100.00
2019-04-21T02:20:32.642Z,100.00
2019-04-21T02:25:40.630Z,100.00
2019-04-21T02:28:03.500Z,100.00
2019-04-21T02:30:55.289Z,100.00
2019-04-21T02:33:27.997Z,100.00
2019-04-21T02:42:56.142Z,100.00
2019-04-21T02:45:17.131Z,100.00
2019-04-21T02:50:11.890Z,100.00
2019-04-21T02:55:02.678Z,100.00
2019-04-21T03:00:00.142Z,100.00
2019-04-21T03:02:25.720Z,100.00
2019-04-21T03:14:50.244Z,100.00
2019-04-21T03:16:55.595Z,100.00
2019-04-21T03:19:30.059Z,100.00
2019-04-21T03:22:01.980Z,100.00
2019-04-21T03:24:31.201Z,100.00
2019-04-21T03:26:51.546Z,100.00
2019-04-21T03:29:11.857Z,100.00
2019-04-21T03:32:06.425Z,100.00
2019-04-21T03:36:56.906Z,100.00
2019-04-21T03:41:18.874Z,100.00
2019-04-21T03:43:54.657Z,100.00
2019-04-21T03:46:15.971Z,100.00
2019-04-21T03:48:41.061Z,100.00
2019-04-21T03:51:12.545Z,100.00
2019-04-21T03:53:31.990Z,100.00
2019-04-21T03:56:01.339Z,100.00
2019-04-21T03:58:44.930Z,100.00
2019-04-21T04:01:02.916Z,100.00
2019-04-21T04:03:42.143Z,100.00
2019-04-21T04:05:59.648Z,100.00
2019-04-21T04:08:28.692Z,100.00
2019-04-21T04:10:42.691Z,100.00
2019-04-21T04:13:07.351Z,100.00
2019-04-21T04:15:38.682Z,100.00
2019-04-21T04:17:53.958Z,100.00
2019-04-21T04:20:28.094Z,100.00
2019-04-21T04:30:12.404Z,100.00
2019-04-21T04:32:38.623Z,100.00
2019-04-21T04:35:03.849Z,100.00
2019-04-21T04:37:31.927Z,100.00
2019-04-21T04:40:05.691Z,100.00
2019-04-21T04:49:47.967Z,100.00
2019-04-21T04:54:49.143Z,100.00
2019-04-21T04:59:33.776Z,100.00
2019-04-21T05:04:20.522Z,100.00
2019-04-21T05:06:51.228Z,100.00
2019-04-21T05:09:13.289Z,100.00
2019-04-21T05:11:46.084Z,100.00
2019-04-21T05:19:06.493Z,100.00
2019-04-21T05:21:30.267Z,100.00
2019-04-21T05:23:37.629Z,100.00
2019-04-21T05:26:00.090Z,100.00
2019-04-21T05:28:24.068Z,100.00
2019-04-21T05:31:04.372Z,100.00
2019-04-21T05:33:27.552Z,100.00
2019-04-21T05:35:53.051Z,100.00
2019-04-21T05:38:10.237Z,100.00
2019-04-21T05:40:37.383Z,100.00
2019-04-21T05:43:14.107Z,100.00
2019-04-21T05:45:34.786Z,100.00
2019-04-21T05:48:12.077Z,100.00
2019-04-21T05:50:26.565Z,100.00
2019-04-21T05:52:51.938Z,100.00
2019-04-21T05:55:26.148Z,100.00
2019-04-21T05:57:47.844Z,100.00
2019-04-21T06:00:19.677Z,100.00
2019-04-21T06:02:42.010Z,100.00
2019-04-21T06:05:21.988Z,100.00
2019-04-21T06:07:34.928Z,100.00
2019-04-21T06:09:59.974Z,100.00
2019-04-21T06:12:29.769Z,100.00
2019-04-21T06:14:54.778Z,100.00
2019-04-21T06:17:28.378Z,100.00
2019-04-21T06:19:49.361Z,100.00
2019-04-21T06:22:07.724Z,100.00
2019-04-21T06:24:51.014Z,100.00
2019-04-21T06:27:22.499Z,100.00
2019-04-21T06:29:33.117Z,100.00
2019-04-21T06:32:21.908Z,100.00
2019-04-21T06:34:24.416Z,100.00
2019-04-21T06:39:28.311Z,93.87
2019-04-21T06:41:42.562Z,94.77
2019-04-21T06:44:12.946Z,89.51
2019-04-21T06:46:36.653Z,88.20
2019-04-21T06:51:32.302Z,79.98
2019-04-21T06:53:59.704Z,72.46
2019-04-21T06:56:23.823Z,69.51
2019-04-21T06:58:42.885Z,68.27
2019-04-21T07:01:17.235Z,72.21
2019-04-21T07:03:42.168Z,72.23
2019-04-21T07:06:09.362Z,68.48
2019-04-21T07:08:42.061Z,65.77
2019-04-21T07:10:56.741Z,67.64
2019-04-21T07:13:22.235Z,64.89
2019-04-21T07:15:53.140Z,65.85
2019-04-21T07:18:21.498Z,65.13
2019-04-21T07:20:45.046Z,61.64
2019-04-21T07:23:11.895Z,61.01
2019-04-21T07:25:39.018Z,58.77
2019-04-21T07:28:17.547Z,59.57
2019-04-21T07:30:32.757Z,57.62
2019-04-21T07:33:07.170Z,57.64
2019-04-21T07:35:22.152Z,55.35
2019-04-21T07:37:51.024Z,53.84
2019-04-21T07:40:09.467Z,54.47
2019-04-21T07:42:32.864Z,57.28
2019-04-21T07:44:57.592Z,54.52
2019-04-21T07:47:30.613Z,53.38
2019-04-21T07:50:00.524Z,55.75
2019-04-21T07:52:22.123Z,51.95
2019-04-21T07:54:57.559Z,51.20
2019-04-21T07:57:13.002Z,51.76
2019-04-21T07:59:52.024Z,51.63
2019-04-21T08:02:12.177Z,50.05
2019-04-21T08:06:56.670Z,51.81
2019-04-21T08:09:27.635Z,51.79
2019-04-21T08:11:50.041Z,51.87
2019-04-21T08:14:24.311Z,50.91
2019-04-21T08:16:53.966Z,51.47
2019-04-21T08:19:13.004Z,50.87
2019-04-21T08:21:41.996Z,46.65
2019-04-21T08:24:06.191Z,48.13
2019-04-21T08:26:38.345Z,49.21
2019-04-21T08:29:07.790Z,49.91
2019-04-21T08:31:34.407Z,50.80
2019-04-21T08:33:55.391Z,49.03
2019-04-21T08:41:08.691Z,47.21
2019-04-21T08:46:01.966Z,46.45
2019-04-21T08:48:29.110Z,46.44
2019-04-21T08:51:06.287Z,47.40
2019-04-21T08:53:19.612Z,46.95
2019-04-21T09:00:45.189Z,45.70
2019-04-21T09:03:09.191Z,43.83
2019-04-21T09:05:34.280Z,43.60
2019-04-21T09:07:57.156Z,42.69
2019-04-21T09:10:22.308Z,41.91
2019-04-21T09:12:50.485Z,42.13
2019-04-21T09:15:19.098Z,41.62
2019-04-21T09:17:37.738Z,41.42
2019-04-21T09:20:20.953Z,41.37
2019-04-21T09:22:37.827Z,41.52
2019-04-21T09:25:05.891Z,41.31
2019-04-21T09:27:29.342Z,43.32
2019-04-21T09:29:44.690Z,44.07
2019-04-21T09:32:03.793Z,41.83
2019-04-21T09:34:35.931Z,40.19
2019-04-21T09:37:12.685Z,40.31
2019-04-21T09:39:25.575Z,40.32
2019-04-21T09:41:49.928Z,39.06
2019-04-21T09:44:22.071Z,39.60
2019-04-21T09:46:46.619Z,39.51
2019-04-21T09:49:12.111Z,37.68
2019-04-21T09:51:34.503Z,37.71
2019-04-21T09:54:05.792Z,39.37
2019-04-21T09:56:37.677Z,37.89
2019-04-21T09:59:07.219Z,36.59
2019-04-21T10:01:26.821Z,35.30
2019-04-21T10:03:48.683Z,34.55
2019-04-21T10:06:13.948Z,34.09
2019-04-21T10:08:38.606Z,34.33
2019-04-21T10:11:05.325Z,33.60
2019-04-21T10:13:31.740Z,34.08
2019-04-21T10:15:56.630Z,33.79
2019-04-21T10:18:22.953Z,33.36
2019-04-21T10:20:49.300Z,31.02
2019-04-21T10:23:15.702Z,31.24
2019-04-21T10:25:42.869Z,31.54
2019-04-21T10:28:08.272Z,30.48
2019-04-21T10:30:34.774Z,31.09
2019-04-21T10:33:00.913Z,31.64
2019-04-21T10:35:27.234Z,30.31
2019-04-21T10:38:05.729Z,28.93
2019-04-21T10:40:21.168Z,28.85
2019-04-21T10:42:46.195Z,28.75
2019-04-21T10:45:12.751Z,29.75
2019-04-21T10:47:39.161Z,30.97
2019-04-21T10:50:06.651Z,31.47
2019-04-21T10:52:34.023Z,31.79
2019-04-21T10:55:23.378Z,32.01
2019-04-21T10:57:24.596Z,32.16
2019-04-21T10:59:53.861Z,32.13
2019-04-21T11:02:17.329Z,31.98
2019-04-21T11:04:44.047Z,31.77
2019-04-21T11:07:14.052Z,30.00
2019-04-21T11:09:36.270Z,29.75
2019-04-21T11:12:03.990Z,29.80
2019-04-21T11:14:29.386Z,29.20
2019-04-21T11:16:56.601Z,29.24
2019-04-21T11:19:22.135Z,29.94
2019-04-21T11:21:49.206Z,29.44
2019-04-21T11:24:14.351Z,30.96
2019-04-21T11:26:40.551Z,31.18
2019-04-21T11:29:07.289Z,31.65
2019-04-21T11:31:33.431Z,31.40
2019-04-21T11:34:00.782Z,31.33
2019-04-21T11:36:26.998Z,31.43
2019-04-21T11:39:07.253Z,31.31
2019-04-21T11:41:19.420Z,31.12
2019-04-21T11:43:45.481Z,31.59
2019-04-21T11:46:12.757Z,31.45
2019-04-21T11:48:38.051Z,32.02
2019-04-21T11:51:04.738Z,31.96
2019-04-21T11:53:30.847Z,31.98
2019-04-21T11:55:57.113Z,29.82
2019-04-21T11:58:23.676Z,29.20
2019-04-21T12:00:50.885Z,29.83
2019-04-21T12:03:17.388Z,29.31
2019-04-21T12:05:43.498Z,29.33
2019-04-21T12:08:21.275Z,29.70
2019-04-21T12:10:35.545Z,30.80
2019-04-21T12:13:03.023Z,31.04
2019-04-21T12:15:29.095Z,31.17
2019-04-21T12:17:54.300Z,32.08
2019-04-21T12:20:20.915Z,32.42
2019-04-21T12:22:47.437Z,36.13
2019-04-21T12:25:13.397Z,34.21
2019-04-21T12:27:40.062Z,33.48
2019-04-21T12:30:06.042Z,33.11
2019-04-21T12:32:32.119Z,33.22
2019-04-21T12:34:59.711Z,33.33
2019-04-21T12:37:24.783Z,32.56
2019-04-21T12:39:52.485Z,33.00
2019-04-21T12:42:18.545Z,33.26
2019-04-21T12:44:43.767Z,33.30
2019-04-21T12:47:10.194Z,32.52
2019-04-21T12:49:36.414Z,32.26
2019-04-21T12:52:03.797Z,32.54
2019-04-21T12:54:29.860Z,32.37
2019-04-21T12:56:55.762Z,32.93
2019-04-21T12:59:21.774Z,32.90
2019-04-21T13:01:48.630Z,32.74
2019-04-21T13:04:15.614Z,32.64
2019-04-21T13:06:41.504Z,32.76
2019-04-21T13:09:10.720Z,30.75
2019-04-21T13:11:33.393Z,30.15
2019-04-21T13:13:59.907Z,30.84
2019-04-21T13:16:27.467Z,29.89
2019-04-21T13:18:53.432Z,29.89
2019-04-21T13:21:18.703Z,30.96
2019-04-21T13:23:45.184Z,31.81
2019-04-21T13:26:11.474Z,32.55
2019-04-21T13:28:37.775Z,32.37
2019-04-21T13:31:04.391Z,31.96
2019-04-21T13:33:31.246Z,32.03
2019-04-21T13:35:57.241Z,31.40
2019-04-21T13:38:32.567Z,30.90
2019-04-21T13:41:05.396Z,31.24
2019-04-21T13:43:16.951Z,30.70
2019-04-21T13:45:41.981Z,30.82
2019-04-21T13:48:08.423Z,31.07
2019-04-21T13:50:35.325Z,30.16
2019-04-21T13:53:00.972Z,29.59
2019-04-21T13:55:27.548Z,30.90
2019-04-21T13:57:54.512Z,30.94
2019-04-21T14:00:21.291Z,31.35
2019-04-21T14:02:46.990Z,30.54
2019-04-21T14:05:15.246Z,30.14
2019-04-21T14:07:38.919Z,31.27
2019-04-21T14:10:08.439Z,30.86
2019-04-21T14:12:31.657Z,31.13
2019-04-21T14:14:57.905Z,31.79
2019-04-21T14:17:24.669Z,31.82
2019-04-21T14:19:51.042Z,32.17
2019-04-21T14:22:18.014Z,31.97
2019-04-21T14:24:43.750Z,32.36
2019-04-21T14:27:10.177Z,32.58
2019-04-21T14:29:35.891Z,32.21
2019-04-21T14:32:02.225Z,31.74
2019-04-21T14:34:28.534Z,36.60
2019-04-21T14:36:55.046Z,37.06
2019-04-21T14:39:22.765Z,34.85
2019-04-21T14:41:48.309Z,34.78
2019-04-21T14:44:15.157Z,33.82
2019-04-21T14:46:40.178Z,35.48
2019-04-21T14:49:06.510Z,36.91
2019-04-21T14:51:32.826Z,37.83
2019-04-21T14:53:59.704Z,36.79
2019-04-21T14:56:25.505Z,37.08
2019-04-21T14:58:55.296Z,37.56
2019-04-21T15:01:18.162Z,37.59
2019-04-21T15:03:45.664Z,36.47
2019-04-21T15:06:11.622Z,35.17
2019-04-21T15:08:37.454Z,36.96
2019-04-21T15:11:03.488Z,36.90
2019-04-21T15:13:30.111Z,37.22
2019-04-21T15:15:56.307Z,36.65
2019-04-21T15:18:22.973Z,35.58
2019-04-21T15:20:50.466Z,35.84
2019-04-21T15:23:15.443Z,35.43
2019-04-21T15:25:41.979Z,35.01
2019-04-21T15:28:09.302Z,33.96
2019-04-21T15:30:34.517Z,33.96
2019-04-21T15:33:00.757Z,33.39
2019-04-21T15:35:27.079Z,32.72
2019-04-21T15:37:53.737Z,32.34
2019-04-21T15:40:31.503Z,31.32
2019-04-21T15:42:46.497Z,31.98
2019-04-21T15:45:12.783Z,31.84
2019-04-21T15:47:39.994Z,32.46
2019-04-21T15:50:10.175Z,32.24
2019-04-21T15:52:31.833Z,32.05
2019-04-21T15:54:58.944Z,32.33
2019-04-21T15:57:24.256Z,31.73
2019-04-21T15:59:50.745Z,31.91
2019-04-21T16:02:16.898Z,31.63
2019-04-21T16:04:43.215Z,36.34
2019-04-21T16:07:09.706Z,35.87
2019-04-21T16:09:37.550Z,32.87
2019-04-21T16:12:04.075Z,32.71
2019-04-21T16:14:29.138Z,32.13
2019-04-21T16:16:56.948Z,33.48
2019-04-21T16:19:23.039Z,33.31
2019-04-21T16:21:48.658Z,32.75
2019-04-21T16:24:14.417Z,33.24
2019-04-21T16:26:40.741Z,34.23
2019-04-21T16:29:07.209Z,34.90
2019-04-21T16:31:34.288Z,34.43
2019-04-21T16:34:00.949Z,32.58
2019-04-21T16:36:27.335Z,32.39
2019-04-21T16:38:53.610Z,32.21
2019-04-21T16:41:20.227Z,33.99
2019-04-21T16:43:45.099Z,34.30
2019-04-21T16:46:11.422Z,33.21
2019-04-21T16:48:37.893Z,33.21
2019-04-21T16:51:04.089Z,33.13
2019-04-21T16:53:30.415Z,33.09
2019-04-21T16:55:57.346Z,33.32
2019-04-21T16:58:26.621Z,32.99
2019-04-21T17:00:57.351Z,33.09
2019-04-21T17:03:16.635Z,35.57
2019-04-21T17:05:42.513Z,36.54
2019-04-21T17:08:08.345Z,36.11
2019-04-21T17:10:35.007Z,35.84
2019-04-21T17:13:02.299Z,34.90
2019-04-21T17:15:42.066Z,34.33
2019-04-21T17:18:07.597Z,34.29
2019-04-21T17:20:35.468Z,35.44
2019-04-21T17:22:46.300Z,35.27
2019-04-21T17:25:14.078Z,36.37
2019-04-21T17:27:39.120Z,36.76
2019-04-21T17:30:06.378Z,36.85
2019-04-21T17:32:37.195Z,37.67
2019-04-21T17:34:58.105Z,37.25
2019-04-21T17:37:26.820Z,37.16
2019-04-21T17:39:50.613Z,36.93
2019-04-21T17:42:26.473Z,36.99
2019-04-21T17:44:43.390Z,37.46
2019-04-21T17:47:21.804Z,37.03
2019-04-21T17:49:37.153Z,37.50
2019-04-21T17:52:06.381Z,37.04
2019-04-21T17:54:35.659Z,36.98
2019-04-21T17:57:20.276Z,37.33
2019-04-21T17:59:50.680Z,36.40
2019-04-21T18:02:03.977Z,36.42
2019-04-21T18:04:30.744Z,36.53
2019-04-21T18:06:54.417Z,37.06
2019-04-21T18:09:28.713Z,37.54
2019-04-21T18:11:53.946Z,38.07
2019-04-21T18:13:59.744Z,38.62
2019-04-21T18:16:34.299Z,38.39
2019-04-21T18:18:52.976Z,38.66
2019-04-21T18:21:18.733Z,38.96
2019-04-21T18:23:56.341Z,38.40
2019-04-21T18:26:24.649Z,37.18
2019-04-21T18:28:38.867Z,36.88
2019-04-21T18:31:06.727Z,37.16
2019-04-21T18:33:35.523Z,37.49
2019-04-21T18:35:59.702Z,37.83
2019-04-21T18:38:29.556Z,37.83
2019-04-21T18:40:54.272Z,37.89
2019-04-21T18:43:50.178Z,37.94
2019-04-21T18:46:06.887Z,37.96
2019-04-21T18:48:19.429Z,38.40
2019-04-21T18:50:45.637Z,38.56
2019-04-21T18:53:14.423Z,38.92
2019-04-21T18:55:34.500Z,38.78
2019-04-21T18:57:56.312Z,38.80
2019-04-21T19:00:26.214Z,38.81
2019-04-21T19:02:51.778Z,39.10
2019-04-21T19:05:19.136Z,39.21
2019-04-21T19:08:00.559Z,39.00
2019-04-21T19:10:36.276Z,39.18
2019-04-21T19:15:16.310Z,39.62
2019-04-21T19:18:25.385Z,39.53
2019-04-21T19:20:11.783Z,39.71
2019-04-21T19:22:38.152Z,40.03
2019-04-21T19:25:10.868Z,40.04
2019-04-21T19:27:28.106Z,39.99
2019-04-21T19:34:35.974Z,39.58
2019-04-21T19:37:03.975Z,39.57
2019-04-21T19:39:39.168Z,39.64
2019-04-21T19:42:00.527Z,39.74
2019-04-21T19:44:35.196Z,39.83
2019-04-21T19:47:00.026Z,39.81
2019-04-21T19:49:35.036Z,39.91
2019-04-21T19:51:48.486Z,39.91
2019-04-21T19:54:11.017Z,39.94
2019-04-21T19:56:27.933Z,39.86
2019-04-21T19:58:53.256Z,39.87
2019-04-21T20:01:19.590Z,39.90
2019-04-21T20:03:49.860Z,40.15
2019-04-21T20:06:31.585Z,40.26
2019-04-21T20:09:00.693Z,40.47
2019-04-21T20:11:27.111Z,40.46
2019-04-21T20:14:33.943Z,40.24
2019-04-21T20:16:19.033Z,40.46
2019-04-21T20:18:32.569Z,40.54
2019-04-21T20:20:50.307Z,40.70
2019-04-21T20:23:22.886Z,41.24
2019-04-21T20:25:49.060Z,41.74
2019-04-21T20:28:21.401Z,41.84
2019-04-21T20:30:58.420Z,42.08
2019-04-21T20:33:41.324Z,42.11
2019-04-21T20:35:51.993Z,42.43
2019-04-21T20:38:09.443Z,42.82
2019-04-21T20:40:30.893Z,43.19
2019-04-21T20:43:08.694Z,43.50
2019-04-21T20:45:49.425Z,43.63
2019-04-21T20:47:44.750Z,43.90
2019-04-21T20:50:22.802Z,44.03
2019-04-21T20:52:54.069Z,43.71
2019-04-21T20:55:11.991Z,43.52
2019-04-21T20:57:40.823Z,43.31
2019-04-21T21:00:16.818Z,42.91
2019-04-21T21:02:36.702Z,42.83
2019-04-21T21:04:51.570Z,42.91
2019-04-21T21:07:40.442Z,42.72
2019-04-21T21:10:01.207Z,42.79
2019-04-21T21:12:28.993Z,42.76
2019-04-21T21:14:41.992Z,42.79
2019-04-21T21:17:25.381Z,43.24
2019-04-21T21:19:43.871Z,42.87
2019-04-21T21:22:01.448Z,43.01
2019-04-21T21:24:36.418Z,42.69
2019-04-21T21:26:58.176Z,42.74
2019-04-21T21:29:26.451Z,42.49
2019-04-21T21:32:04.276Z,42.76
2019-04-21T21:34:25.903Z,43.08
2019-04-21T21:36:41.556Z,43.29
2019-04-21T21:39:12.908Z,43.19
2019-04-21T21:41:26.561Z,43.20
2019-04-21T21:43:51.497Z,43.23
2019-04-21T21:46:30.951Z,43.24
2019-04-21T21:48:52.945Z,43.36
2019-04-21T21:51:15.481Z,43.13
2019-04-21T21:53:34.145Z,43.12
2019-04-21T21:55:58.539Z,43.31
2019-04-21T21:58:27.467Z,43.27
2019-04-21T22:00:56.472Z,43.34
2019-04-21T22:03:24.460Z,43.40
2019-04-21T22:05:48.897Z,43.41
2019-04-21T22:08:10.152Z,43.40
2019-04-21T22:10:35.210Z,43.28
2019-04-21T22:13:07.194Z,43.39
2019-04-21T22:15:30.349Z,43.38
2019-04-21T22:18:14.659Z,43.51
2019-04-21T22:20:37.564Z,43.43
2019-04-21T22:22:56.375Z,43.62
2019-04-21T22:25:21.862Z,43.87
2019-04-21T22:27:39.458Z,44.16
2019-04-21T22:30:07.827Z,44.06
2019-04-21T22:32:34.623Z,44.03
2019-04-21T22:35:03.757Z,44.27
2019-04-21T22:37:38.784Z,44.20
2019-04-21T22:40:04.474Z,44.41
2019-04-21T22:42:22.395Z,44.66
2019-04-21T22:44:43.710Z,44.61
2019-04-21T22:47:16.918Z,44.74
2019-04-21T22:49:36.867Z,44.86
2019-04-21T22:52:10.379Z,44.72
2019-04-21T22:54:35.457Z,44.53
2019-04-21T22:57:02.595Z,44.60
2019-04-21T22:59:24.106Z,44.71
2019-04-21T23:01:50.387Z,44.83
2019-04-21T23:04:15.856Z,44.87
2019-04-21T23:06:41.254Z,44.97
2019-04-21T23:09:07.157Z,44.88
2019-04-21T23:11:37.384Z,45.01
2019-04-21T23:14:04.258Z,45.36
2019-04-21T23:16:31.648Z,45.57
2019-04-21T23:19:13.099Z,46.14
2019-04-21T23:21:30.361Z,46.25
2019-04-21T23:24:05.855Z,46.40
2019-04-21T23:26:29.770Z,46.45
2019-04-21T23:28:56.828Z,46.69
2019-04-21T23:31:24.491Z,46.97
2019-04-21T23:33:31.454Z,47.46
2019-04-21T23:36:03.989Z,47.44
2019-04-21T23:38:29.244Z,47.77
2019-04-21T23:40:55.914Z,47.89
2019-04-21T23:43:20.960Z,48.41
2019-04-21T23:45:44.830Z,49.01
2019-04-21T23:48:19.780Z,49.01
2019-04-21T23:50:45.856Z,49.30
2019-04-21T23:53:01.615Z,49.60
2019-04-21T23:55:27.392Z,50.10
2019-04-21T23:58:04.944Z,50.23
